createdAt,value
2022-10-07T00:00:53.835Z,11.88
2022-10-07T00:03:22.326Z,8.27
2022-10-07T00:06:00.190Z,6.70
2022-10-07T00:08:27.173Z,10.27
2022-10-07T00:10:53.875Z,5.68
2022-10-07T00:13:20.379Z,11.85
2022-10-07T00:15:46.890Z,9.30
2022-10-07T00:18:13.464Z,12.32
2022-10-07T00:20:40.610Z,7.45
2022-10-07T00:23:07.955Z,8.27
2022-10-07T00:25:37.946Z,8.07
2022-10-07T00:28:05.409Z,9.40
2022-10-07T00:30:32.001Z,9.75
2022-10-07T00:32:58.632Z,5.78
2022-10-07T00:35:25.127Z,9.60
2022-10-07T00:37:51.737Z,9.02
2022-10-07T00:40:18.146Z,4.82
2022-10-07T00:42:44.464Z,6.45
2022-10-07T00:45:19.468Z,9.15
2022-10-07T00:47:50.127Z,7.22
2022-10-07T00:50:28.679Z,6.80
2022-10-07T00:52:59.574Z,7.38
2022-10-07T00:55:28.760Z,10.07
2022-10-07T00:57:58.586Z,10.15
2022-10-07T01:00:25.194Z,6.22
2022-10-07T01:02:52.224Z,8.80
2022-10-07T01:05:19.659Z,9.43
2022-10-07T01:07:50.574Z,6.70
2022-10-07T01:10:20.285Z,10.68
2022-10-07T01:12:49.447Z,9.45
2022-10-07T01:15:34.416Z,8.20
2022-10-07T01:18:15.881Z,7.63
2022-10-07T01:21:06.339Z,10.80
2022-10-07T01:24:03.673Z,10.70
2022-10-07T01:27:01.593Z,9.75
2022-10-07T01:29:37.061Z,9.45
2022-10-07T01:32:29.017Z,7.57
2022-10-07T01:34:57.395Z,6.85
2022-10-07T01:37:27.079Z,4.00
2022-10-07T01:40:01.230Z,10.60
2022-10-07T01:42:29.072Z,8.32
2022-10-07T01:44:58.652Z,4.18
2022-10-07T01:47:26.442Z,7.50
2022-10-07T01:49:53.046Z,9.23
2022-10-07T01:52:57.398Z,9.77
2022-10-07T01:55:59.032Z,5.30
2022-10-07T01:58:52.796Z,8.30
2022-10-07T02:01:39.783Z,9.98
2022-10-07T02:04:17.780Z,8.90
2022-10-07T02:06:57.783Z,6.18
2022-10-07T02:09:29.065Z,9.90
2022-10-07T02:12:11.706Z,9.48
2022-10-07T02:14:45.882Z,8.82
2022-10-07T02:17:20.528Z,7.15
2022-10-07T02:19:51.211Z,6.43
2022-10-07T02:24:47.894Z,8.23
2022-10-07T02:27:20.636Z,9.52
2022-10-07T02:29:49.296Z,13.73
2022-10-07T02:32:20.444Z,10.15
2022-10-07T02:34:54.062Z,9.70
2022-10-07T02:37:26.527Z,9.90
2022-10-07T02:39:54.729Z,7.53
2022-10-07T02:42:30.411Z,9.57
2022-10-07T02:45:06.580Z,9.35
2022-10-07T02:47:47.724Z,8.60
2022-10-07T02:50:19.296Z,10.43
2022-10-07T02:52:46.503Z,11.43
2022-10-07T02:55:17.309Z,13.45
2022-10-07T02:57:50.078Z,8.68
2022-10-07T03:00:18.286Z,11.52
2022-10-07T03:02:50.875Z,11.80
2022-10-07T03:05:19.113Z,12.35
2022-10-07T03:07:47.618Z,7.35
2022-10-07T03:10:14.769Z,10.90
2022-10-07T03:12:41.116Z,11.05
2022-10-07T03:15:08.654Z,10.45
2022-10-07T03:17:35.020Z,16.80
2022-10-07T03:20:01.459Z,12.13
2022-10-07T03:22:27.952Z,11.35
2022-10-07T03:24:54.302Z,11.82
2022-10-07T03:27:20.986Z,12.20
2022-10-07T03:29:47.382Z,12.00
2022-10-07T03:32:13.780Z,11.48
2022-10-07T03:34:40.101Z,11.48
2022-10-07T03:37:06.622Z,10.95
2022-10-07T03:39:33.095Z,9.88
2022-10-07T03:41:59.428Z,11.75
2022-10-07T03:44:25.951Z,11.88
2022-10-07T03:46:52.544Z,16.83
2022-10-07T03:49:19.112Z,14.65
2022-10-07T03:51:45.958Z,12.63
2022-10-07T03:54:12.428Z,12.70
2022-10-07T03:56:39.026Z,7.03
2022-10-07T03:59:05.448Z,14.75
2022-10-07T04:01:32.296Z,12.13
2022-10-07T04:03:59.449Z,13.07
2022-10-07T04:06:26.275Z,9.25
2022-10-07T04:08:53.819Z,9.65
2022-10-07T04:11:20.154Z,10.15
2022-10-07T04:13:46.577Z,11.95
2022-10-07T04:16:12.959Z,15.32
2022-10-07T04:18:39.984Z,13.40
2022-10-07T04:21:06.329Z,9.93
2022-10-07T04:23:32.646Z,9.35
2022-10-07T04:25:59.213Z,8.80
2022-10-07T04:28:26.187Z,7.22
2022-10-07T04:30:53.399Z,7.22
2022-10-07T04:33:22.183Z,12.07
2022-10-07T04:35:49.551Z,8.75
2022-10-07T04:38:17.364Z,9.60
2022-10-07T04:40:49.242Z,10.43
2022-10-07T04:43:21.131Z,9.38
2022-10-07T04:45:59.770Z,12.00
2022-10-07T04:48:26.144Z,11.35
2022-10-07T04:50:53.149Z,10.07
2022-10-07T04:53:20.698Z,10.48
2022-10-07T04:55:50.126Z,7.70
2022-10-07T04:58:17.640Z,11.52
2022-10-07T05:00:46.565Z,8.27
2022-10-07T05:03:15.206Z,11.15
2022-10-07T05:05:43.238Z,12.18
2022-10-07T05:08:10.562Z,11.00
2022-10-07T05:10:39.187Z,13.95
2022-10-07T05:13:07.502Z,15.20
2022-10-07T05:15:33.876Z,12.35
2022-10-07T05:18:00.546Z,11.57
2022-10-07T05:20:27.187Z,10.48
2022-10-07T05:22:53.660Z,15.07
2022-10-07T05:25:20.516Z,10.25
2022-10-07T05:27:50.921Z,14.60
2022-10-07T05:30:17.618Z,14.48
2022-10-07T05:32:44.055Z,13.70
2022-10-07T05:35:10.665Z,11.52
2022-10-07T05:37:36.993Z,10.85
2022-10-07T05:40:03.793Z,10.38
2022-10-07T05:42:30.220Z,13.02
2022-10-07T05:44:56.606Z,10.27
2022-10-07T05:47:23.102Z,14.10
2022-10-07T05:49:49.518Z,10.27
2022-10-07T05:52:15.837Z,13.48
2022-10-07T05:54:42.540Z,9.48
2022-10-07T05:57:09.298Z,9.38
2022-10-07T05:59:35.974Z,9.02
2022-10-07T06:02:02.650Z,10.65
2022-10-07T06:04:29.132Z,10.48
2022-10-07T06:06:55.520Z,14.63
2022-10-07T06:09:21.892Z,13.23
2022-10-07T06:11:48.300Z,12.52
2022-10-07T06:14:15.050Z,16.70
2022-10-07T06:16:41.568Z,7.82
2022-10-07T06:19:08.263Z,15.07
2022-10-07T06:21:34.670Z,13.88
2022-10-07T06:24:02.132Z,15.13
2022-10-07T06:26:28.477Z,13.35
2022-10-07T06:28:54.893Z,11.88
2022-10-07T06:31:22.298Z,14.60
2022-10-07T06:33:49.783Z,11.40
2022-10-07T06:36:16.328Z,11.43
2022-10-07T06:38:47.165Z,14.35
2022-10-07T06:43:40.528Z,16.80
2022-10-07T06:46:10.061Z,12.38
2022-10-07T06:48:36.508Z,13.85
2022-10-07T06:51:03.513Z,14.68
2022-10-07T06:53:30.931Z,20.65
2022-10-07T06:56:04.343Z,13.43
2022-10-07T06:58:30.902Z,13.63
2022-10-07T07:00:58.961Z,11.60
2022-10-07T07:03:26.429Z,10.27
2022-10-07T07:05:54.475Z,9.65
2022-10-07T07:08:25.536Z,12.40
2022-10-07T07:10:52.014Z,14.68
2022-10-07T07:13:18.697Z,8.32
2022-10-07T07:15:54.948Z,10.30
2022-10-07T07:18:21.604Z,14.05
2022-10-07T07:20:48.014Z,12.93
2022-10-07T07:23:14.643Z,12.05
2022-10-07T07:25:41.609Z,14.95
2022-10-07T07:28:08.332Z,11.80
2022-10-07T07:30:35.532Z,14.63
2022-10-07T07:33:01.976Z,12.85
2022-10-07T07:35:30.045Z,14.65
2022-10-07T07:37:56.626Z,10.88
2022-10-07T07:40:23.100Z,14.93
2022-10-07T07:42:49.653Z,11.80
2022-10-07T07:45:16.388Z,15.00
2022-10-07T07:47:43.038Z,11.40
2022-10-07T07:50:09.858Z,10.25
2022-10-07T07:52:36.407Z,15.30
2022-10-07T07:55:03.018Z,12.52
2022-10-07T07:57:30.458Z,12.93
2022-10-07T07:59:57.211Z,15.57
2022-10-07T08:02:23.621Z,10.15
2022-10-07T08:04:50.240Z,11.00
2022-10-07T08:07:16.737Z,10.20
2022-10-07T08:09:43.055Z,12.35
2022-10-07T08:12:10.499Z,9.40
2022-10-07T08:14:37.139Z,11.32
2022-10-07T08:17:03.609Z,13.80
2022-10-07T08:19:29.970Z,13.05
2022-10-07T08:21:57.174Z,11.77
2022-10-07T08:24:24.090Z,10.45
2022-10-07T08:26:50.498Z,10.68
2022-10-07T08:29:17.063Z,12.20
2022-10-07T08:31:43.856Z,12.65
2022-10-07T08:34:11.285Z,11.52
2022-10-07T08:36:38.203Z,17.77
2022-10-07T08:39:05.877Z,10.57
2022-10-07T08:41:42.889Z,12.73
2022-10-07T08:44:16.943Z,13.77
2022-10-07T08:47:22.439Z,8.07
2022-10-07T08:50:19.766Z,14.57
2022-10-07T08:52:54.131Z,11.50
2022-10-07T08:55:42.023Z,12.30
2022-10-07T08:58:23.445Z,6.50
2022-10-07T09:00:56.690Z,8.25
2022-10-07T09:03:28.976Z,9.75
2022-10-07T09:05:56.542Z,10.88
2022-10-07T09:08:30.179Z,10.43
2022-10-07T09:11:05.807Z,9.88
2022-10-07T09:13:38.366Z,7.88
2022-10-07T09:18:39.759Z,5.85
2022-10-07T09:21:13.029Z,10.57
2022-10-07T09:23:39.595Z,7.57
2022-10-07T09:26:11.829Z,7.90
2022-10-07T09:28:38.481Z,13.52
2022-10-07T09:31:05.749Z,13.63
2022-10-07T09:33:43.239Z,8.85
2022-10-07T09:36:12.317Z,12.18
2022-10-07T09:38:45.881Z,10.73
2022-10-07T09:41:16.930Z,9.23
2022-10-07T09:43:55.998Z,11.98
2022-10-07T09:46:34.356Z,12.50
2022-10-07T09:49:02.445Z,9.52
2022-10-07T09:51:28.865Z,12.80
2022-10-07T09:54:00.862Z,8.07
2022-10-07T09:56:40.192Z,8.40
2022-10-07T09:59:25.913Z,10.65
2022-10-07T10:02:12.961Z,9.27
2022-10-07T10:04:47.735Z,9.77
2022-10-07T10:07:25.453Z,10.48
2022-10-07T10:09:54.441Z,9.38
2022-10-07T10:12:22.266Z,12.57
2022-10-07T10:14:57.833Z,11.32
2022-10-07T10:17:35.901Z,9.80
2022-10-07T10:20:24.198Z,11.38
2022-10-07T10:22:52.238Z,12.10
2022-10-07T10:25:39.014Z,10.65
2022-10-07T10:28:15.245Z,28.52
2022-10-07T10:30:53.963Z,19.17
2022-10-07T10:33:40.500Z,11.25
2022-10-07T10:36:22.876Z,12.48
2022-10-07T10:39:24.354Z,15.25
2022-10-07T10:41:56.734Z,14.88
2022-10-07T10:44:37.351Z,11.45
2022-10-07T10:49:53.167Z,12.38
2022-10-07T10:52:58.170Z,12.15
2022-10-07T10:55:40.061Z,12.18
2022-10-07T10:58:22.600Z,12.05
2022-10-07T11:00:59.731Z,10.23
2022-10-07T11:03:45.702Z,9.48
2022-10-07T11:06:16.680Z,11.80
2022-10-07T11:08:44.358Z,13.18
2022-10-07T11:11:17.268Z,11.00
2022-10-07T11:13:52.389Z,12.23
2022-10-07T11:16:43.675Z,9.25
2022-10-07T11:19:26.767Z,9.48
2022-10-07T11:21:56.365Z,12.48
2022-10-07T11:24:36.217Z,11.23
2022-10-07T11:27:17.085Z,9.13
2022-10-07T11:29:43.371Z,9.35
2022-10-07T11:32:17.916Z,10.88
2022-10-07T11:34:53.644Z,11.18
2022-10-07T11:37:42.773Z,13.48
2022-10-07T11:40:09.609Z,11.60
2022-10-07T11:42:50.622Z,8.73
2022-10-07T11:45:19.740Z,9.93
2022-10-07T11:47:53.639Z,10.80
2022-10-07T11:50:25.530Z,11.50
2022-10-07T11:52:59.979Z,12.82
2022-10-07T11:55:30.136Z,16.52
2022-10-07T11:57:59.495Z,11.13
2022-10-07T12:00:35.362Z,12.75
2022-10-07T12:03:32.493Z,13.43
2022-10-07T12:06:08.477Z,10.15
2022-10-07T12:08:38.864Z,10.35
2022-10-07T12:13:37.668Z,10.10
2022-10-07T12:16:30.463Z,8.35
2022-10-07T12:19:09.794Z,9.70
2022-10-07T12:22:02.664Z,9.80
2022-10-07T12:24:34.679Z,10.15
2022-10-07T12:27:13.508Z,10.80
2022-10-07T12:29:54.419Z,9.52
2022-10-07T12:32:52.164Z,8.95
2022-10-07T12:35:53.096Z,9.00
2022-10-07T12:38:25.867Z,8.43
2022-10-07T12:41:11.101Z,5.72
2022-10-07T12:43:52.929Z,7.85
2022-10-07T12:46:22.476Z,9.52
2022-10-07T12:49:06.472Z,11.50
2022-10-07T12:51:38.187Z,9.75
2022-10-07T12:54:12.886Z,7.45
2022-10-07T12:56:43.229Z,6.93
2022-10-07T12:59:31.146Z,9.00
2022-10-07T13:02:16.153Z,6.78
2022-10-07T13:05:01.429Z,9.15
2022-10-07T13:07:49.510Z,7.50
2022-10-07T13:10:21.636Z,8.82
2022-10-07T13:12:55.771Z,11.95
2022-10-07T13:15:44.069Z,6.10
2022-10-07T13:18:20.753Z,8.50
2022-10-07T13:21:06.608Z,7.20
2022-10-07T13:23:33.707Z,11.30
2022-10-07T13:26:01.286Z,8.88
2022-10-07T13:28:44.406Z,7.93
2022-10-07T13:31:19.983Z,6.57
2022-10-07T13:33:46.841Z,7.10
2022-10-07T13:36:15.251Z,9.07
2022-10-07T13:38:41.795Z,9.82
2022-10-07T13:41:17.987Z,6.28
2022-10-07T13:43:45.014Z,5.68
2022-10-07T13:46:12.732Z,6.63
2022-10-07T13:48:45.578Z,6.75
2022-10-07T13:51:26.994Z,7.70
2022-10-07T13:53:56.832Z,12.95
2022-10-07T13:56:28.090Z,6.38
2022-10-07T13:58:57.350Z,7.18
2022-10-07T14:01:27.880Z,4.53
2022-10-07T14:06:53.303Z,7.65
2022-10-07T14:11:53.432Z,7.30
2022-10-07T14:14:24.681Z,5.15
2022-10-07T14:16:55.936Z,6.90
2022-10-07T14:19:22.667Z,7.35
2022-10-07T14:21:49.121Z,10.05
2022-10-07T14:24:19.684Z,5.70
2022-10-07T14:26:46.469Z,6.47
2022-10-07T14:29:36.214Z,7.60
2022-10-07T14:32:10.322Z,6.80
2022-10-07T14:34:43.486Z,7.88
2022-10-07T14:37:27.180Z,6.90
2022-10-07T14:39:56.099Z,7.18
2022-10-07T14:42:33.651Z,8.18
2022-10-07T14:45:03.028Z,6.50
2022-10-07T14:47:29.586Z,5.68
2022-10-07T14:49:57.517Z,6.22
2022-10-07T14:52:27.196Z,5.05
2022-10-07T14:54:55.814Z,6.85
2022-10-07T14:57:22.285Z,8.88
2022-10-07T14:59:48.644Z,8.07
2022-10-07T15:02:15.081Z,5.65
2022-10-07T15:04:41.728Z,6.38
2022-10-07T15:07:09.305Z,6.30
2022-10-07T15:09:35.855Z,6.82
2022-10-07T15:12:02.415Z,6.80
2022-10-07T15:14:28.946Z,5.93
2022-10-07T15:16:55.440Z,8.60
2022-10-07T15:19:22.154Z,6.05
2022-10-07T15:21:48.550Z,5.90
2022-10-07T15:24:16.498Z,5.38
2022-10-07T15:26:43.096Z,6.82
2022-10-07T15:29:09.421Z,6.32
2022-10-07T15:31:36.660Z,4.88
2022-10-07T15:34:03.032Z,5.65
2022-10-07T15:36:29.790Z,6.32
2022-10-07T15:38:58.531Z,5.97
2022-10-07T15:41:39.711Z,8.18
2022-10-07T15:44:12.087Z,7.10
2022-10-07T15:46:38.568Z,6.10
2022-10-07T15:49:05.312Z,8.32
2022-10-07T15:51:32.013Z,7.50
2022-10-07T15:53:58.754Z,7.30
2022-10-07T15:56:25.523Z,6.38
2022-10-07T15:58:52.286Z,6.20
2022-10-07T16:01:19.166Z,8.32
2022-10-07T16:03:47.772Z,6.80
2022-10-07T16:06:23.859Z,8.85
2022-10-07T16:08:53.241Z,10.55
2022-10-07T16:11:19.752Z,7.55
2022-10-07T16:13:47.969Z,14.75
2022-10-07T16:16:17.048Z,9.57
2022-10-07T16:18:46.798Z,9.10
2022-10-07T16:21:16.928Z,9.15
2022-10-07T16:23:45.832Z,7.65
2022-10-07T16:26:15.501Z,9.55
2022-10-07T16:28:43.807Z,7.63
2022-10-07T16:31:10.370Z,8.82
2022-10-07T16:33:37.032Z,8.38
2022-10-07T16:36:13.616Z,6.65
2022-10-07T16:38:41.062Z,9.93
2022-10-07T16:41:07.539Z,7.97
2022-10-07T16:43:34.018Z,9.15
2022-10-07T16:46:05.901Z,7.90
2022-10-07T16:48:38.135Z,8.55
2022-10-07T16:51:07.868Z,9.68
2022-10-07T16:53:34.348Z,7.10
2022-10-07T16:56:01.869Z,8.32
2022-10-07T16:58:28.440Z,10.82
2022-10-07T17:01:03.141Z,9.02
2022-10-07T17:03:29.814Z,6.70
2022-10-07T17:05:59.803Z,6.05
2022-10-07T17:08:26.321Z,7.82
2022-10-07T17:10:52.763Z,10.73
2022-10-07T17:13:19.294Z,10.20
2022-10-07T17:15:50.502Z,12.13
2022-10-07T17:18:18.990Z,9.80
2022-10-07T17:20:51.600Z,8.25
2022-10-07T17:23:18.177Z,10.82
2022-10-07T17:25:44.873Z,7.78
2022-10-07T17:28:11.840Z,9.02
2022-10-07T17:30:38.290Z,7.80
2022-10-07T17:33:05.006Z,10.05
2022-10-07T17:35:31.460Z,10.23
2022-10-07T17:38:02.376Z,10.23
2022-10-07T17:40:30.316Z,10.27
2022-10-07T17:42:59.486Z,14.82
2022-10-07T17:45:25.801Z,14.77
2022-10-07T17:47:52.543Z,14.82
2022-10-07T17:50:18.935Z,13.85
2022-10-07T17:52:45.324Z,17.95
2022-10-07T17:55:11.701Z,10.85
2022-10-07T17:57:38.127Z,11.38
2022-10-07T18:00:05.302Z,17.10
2022-10-07T18:02:31.770Z,13.50
2022-10-07T18:04:58.196Z,13.52
2022-10-07T18:07:25.345Z,17.92
2022-10-07T18:09:51.865Z,15.05
2022-10-07T18:12:18.672Z,19.38
2022-10-07T18:14:47.678Z,11.10
2022-10-07T18:17:16.178Z,11.82
2022-10-07T18:19:42.672Z,17.02
2022-10-07T18:22:09.163Z,16.23
2022-10-07T18:24:35.512Z,12.02
2022-10-07T18:27:02.434Z,14.25
2022-10-07T18:29:31.936Z,18.90
2022-10-07T18:31:58.623Z,15.02
2022-10-07T18:34:25.008Z,15.88
2022-10-07T18:36:55.980Z,15.20
2022-10-07T18:39:24.221Z,14.45
2022-10-07T18:41:51.220Z,16.30
2022-10-07T18:44:17.630Z,15.65
2022-10-07T18:46:44.016Z,13.45
2022-10-07T18:49:10.863Z,16.63
2022-10-07T18:51:37.528Z,17.15
2022-10-07T18:54:04.244Z,12.50
2022-10-07T18:56:31.086Z,17.27
2022-10-07T18:58:58.072Z,16.38
2022-10-07T19:01:27.075Z,13.25
2022-10-07T19:03:59.438Z,13.25
2022-10-07T19:06:27.859Z,12.68
2022-10-07T19:08:56.347Z,13.25
2022-10-07T19:11:23.690Z,18.38
2022-10-07T19:13:53.846Z,17.63
2022-10-07T19:16:21.782Z,14.93
2022-10-07T19:18:50.512Z,17.73
2022-10-07T19:21:17.943Z,17.05
2022-10-07T19:23:44.462Z,16.30
2022-10-07T19:26:12.700Z,14.43
2022-10-07T19:28:40.049Z,17.20
2022-10-07T19:31:18.293Z,16.55
2022-10-07T19:33:46.383Z,15.90
2022-10-07T19:36:14.656Z,15.82
2022-10-07T19:38:42.430Z,20.08
2022-10-07T19:41:10.054Z,17.63
2022-10-07T19:43:36.504Z,14.43
2022-10-07T19:46:03.351Z,15.13
2022-10-07T19:48:30.983Z,15.52
2022-10-07T19:50:57.644Z,19.02
2022-10-07T19:53:24.428Z,16.00
2022-10-07T19:55:51.208Z,16.50
2022-10-07T19:58:17.690Z,14.77
2022-10-07T20:00:44.368Z,22.08
2022-10-07T20:03:10.973Z,17.48
2022-10-07T20:05:38.690Z,18.85
2022-10-07T20:08:10.042Z,16.92
2022-10-07T20:10:38.545Z,17.92
2022-10-07T20:13:04.833Z,17.10
2022-10-07T20:15:31.228Z,17.75
2022-10-07T20:17:57.782Z,17.85
2022-10-07T20:20:24.164Z,24.05
2022-10-07T20:22:50.642Z,19.35
2022-10-07T20:25:17.254Z,17.73
2022-10-07T20:27:44.000Z,18.20
2022-10-07T20:30:15.265Z,20.45
2022-10-07T20:32:44.640Z,17.00
2022-10-07T20:35:11.202Z,18.13
2022-10-07T20:37:38.405Z,15.40
2022-10-07T20:40:05.084Z,17.27
2022-10-07T20:42:33.674Z,15.48
2022-10-07T20:45:00.468Z,19.50
2022-10-07T20:47:32.716Z,15.13
2022-10-07T20:49:59.306Z,18.70
2022-10-07T20:52:30.966Z,14.20
2022-10-07T20:54:58.176Z,15.35
2022-10-07T20:57:27.626Z,17.08
2022-10-07T20:59:54.803Z,19.77
2022-10-07T21:02:22.888Z,14.55
2022-10-07T21:04:49.323Z,20.95
2022-10-07T21:07:17.754Z,17.83
2022-10-07T21:09:45.349Z,16.60
2022-10-07T21:12:14.447Z,16.92
2022-10-07T21:14:41.531Z,19.20
2022-10-07T21:17:08.139Z,16.75
2022-10-07T21:19:35.093Z,19.90
2022-10-07T21:22:02.997Z,21.20
2022-10-07T21:24:30.419Z,19.88
2022-10-07T21:26:56.762Z,21.05
2022-10-07T21:29:23.039Z,15.60
2022-10-07T21:31:49.573Z,17.70
2022-10-07T21:34:16.093Z,18.52
2022-10-07T21:36:44.440Z,19.52
2022-10-07T21:39:11.853Z,17.33
2022-10-07T21:41:38.286Z,20.88
2022-10-07T21:44:09.474Z,19.00
2022-10-07T21:46:36.410Z,18.30
2022-10-07T21:49:03.181Z,18.75
2022-10-07T21:51:29.673Z,18.48
2022-10-07T21:53:57.325Z,18.20
2022-10-07T21:56:25.087Z,16.50
2022-10-07T21:58:51.700Z,16.58
2022-10-07T22:01:20.225Z,18.70
2022-10-07T22:03:47.501Z,17.70
2022-10-07T22:06:16.430Z,15.13
2022-10-07T22:08:45.058Z,16.75
2022-10-07T22:11:16.990Z,14.35
2022-10-07T22:13:49.132Z,18.25
2022-10-07T22:16:18.020Z,14.75
2022-10-07T22:18:46.424Z,17.30
2022-10-07T22:21:15.709Z,17.13
2022-10-07T22:23:44.118Z,16.73
2022-10-07T22:26:12.417Z,17.13
2022-10-07T22:28:40.034Z,19.15
2022-10-07T22:31:09.167Z,15.57
2022-10-07T22:33:37.437Z,16.98
2022-10-07T22:36:08.769Z,13.88
2022-10-07T22:38:35.068Z,14.40
2022-10-07T22:41:03.866Z,15.93
2022-10-07T22:43:30.316Z,14.98
2022-10-07T22:45:58.432Z,20.67
2022-10-07T22:48:26.249Z,20.75
2022-10-07T22:50:53.112Z,17.02
2022-10-07T22:53:20.441Z,17.95
2022-10-07T22:55:46.844Z,16.67
2022-10-07T22:58:13.397Z,15.80
2022-10-07T23:00:39.817Z,15.32
2022-10-07T23:03:06.269Z,17.50
2022-10-07T23:05:36.416Z,17.00
2022-10-07T23:08:03.964Z,18.27
2022-10-07T23:10:30.305Z,22.08
2022-10-07T23:12:56.817Z,18.15
2022-10-07T23:15:23.212Z,16.45
2022-10-07T23:17:49.545Z,18.52
2022-10-07T23:20:15.930Z,16.15
2022-10-07T23:22:44.284Z,19.38
2022-10-07T23:25:10.971Z,18.77
2022-10-07T23:27:38.517Z,18.50
2022-10-07T23:30:05.636Z,16.90
2022-10-07T23:32:32.053Z,16.20
2022-10-07T23:34:58.516Z,18.75
2022-10-07T23:37:24.933Z,16.08
2022-10-07T23:39:51.277Z,15.90
2022-10-07T23:42:17.778Z,17.42
2022-10-07T23:44:44.153Z,16.98
2022-10-07T23:47:10.642Z,19.02
2022-10-07T23:49:37.030Z,18.48
2022-10-07T23:52:03.453Z,18.17
2022-10-07T23:54:29.838Z,15.70
2022-10-07T23:56:56.143Z,14.63
2022-10-07T23:59:22.606Z,19.60
